createdAt,value
2022-08-22T00:03:15.396Z,17.80
2022-08-22T00:08:20.111Z,17.70
2022-08-22T00:13:33.334Z,17.60
2022-08-22T00:18:40.521Z,17.50
2022-08-22T00:23:49.483Z,17.50
2022-08-22T00:28:57.825Z,17.46
2022-08-22T00:34:06.430Z,17.40
2022-08-22T00:39:17.246Z,17.40
2022-08-22T00:44:44.453Z,17.40
2022-08-22T00:50:20.472Z,17.30
2022-08-22T00:55:46.271Z,17.20
2022-08-22T01:00:54.149Z,17.20
2022-08-22T01:06:17.868Z,17.20
2022-08-22T01:11:42.399Z,17.20
2022-08-22T01:17:09.361Z,17.12
2022-08-22T01:23:12.401Z,17.10
2022-08-22T01:29:00.038Z,17.10
2022-08-22T01:34:51.102Z,17.00
2022-08-22T01:40:22.628Z,17.00
2022-08-22T01:45:58.998Z,16.90
2022-08-22T01:51:03.552Z,16.80
2022-08-22T01:56:14.987Z,16.70
2022-08-22T02:01:33.938Z,16.60
2022-08-22T02:06:47.425Z,16.60
2022-08-22T02:11:54.389Z,16.60
2022-08-22T02:17:09.851Z,16.60
2022-08-22T02:22:29.883Z,16.54
2022-08-22T02:27:44.910Z,16.50
2022-08-22T02:33:02.253Z,16.50
2022-08-22T02:38:13.824Z,16.54
2022-08-22T02:43:22.797Z,16.60
2022-08-22T02:48:40.761Z,16.60
2022-08-22T02:53:54.615Z,16.60
2022-08-22T02:59:00.325Z,16.70
2022-08-22T03:04:44.789Z,16.80
2022-08-22T03:09:51.063Z,16.88
2022-08-22T03:15:04.588Z,16.90
2022-08-22T03:20:14.329Z,16.98
2022-08-22T03:25:28.241Z,17.00
2022-08-22T03:30:42.571Z,17.00
2022-08-22T03:35:58.611Z,17.10
2022-08-22T03:41:35.940Z,17.10
2022-08-22T03:47:04.251Z,17.20
2022-08-22T03:53:19.060Z,17.20
2022-08-22T03:58:44.224Z,17.30
2022-08-22T04:04:31.896Z,17.40
2022-08-22T04:10:07.896Z,17.40
2022-08-22T04:15:48.966Z,17.50
2022-08-22T04:21:31.834Z,17.60
2022-08-22T04:26:43.853Z,17.70
2022-08-22T04:31:51.275Z,17.80
2022-08-22T04:36:56.708Z,17.80
2022-08-22T04:42:30.815Z,17.80
2022-08-22T04:47:33.108Z,17.90
2022-08-22T04:52:56.262Z,18.00
2022-08-22T04:58:10.962Z,18.00
2022-08-22T05:03:21.218Z,18.04
2022-08-22T05:08:28.201Z,18.10
2022-08-22T05:13:33.450Z,18.20
2022-08-22T05:18:37.784Z,18.30
2022-08-22T05:23:44.126Z,18.50
2022-08-22T05:28:53.097Z,18.60
2022-08-22T05:33:57.947Z,18.72
2022-08-22T05:39:02.369Z,18.90
2022-08-22T05:44:01.505Z,19.10
2022-08-22T05:49:04.161Z,19.24
2022-08-22T05:54:17.473Z,19.50
2022-08-22T05:59:27.654Z,19.70
2022-08-22T06:04:35.788Z,19.88
2022-08-22T06:09:55.655Z,20.10
2022-08-22T06:15:11.867Z,20.30
2022-08-22T06:20:18.194Z,20.50
2022-08-22T06:25:23.898Z,20.70
2022-08-22T06:30:25.464Z,20.84
2022-08-22T06:35:55.809Z,21.00
2022-08-22T06:40:58.215Z,21.20
2022-08-22T06:45:57.528Z,21.38
2022-08-22T06:51:00.751Z,21.54
2022-08-22T06:56:05.993Z,21.70
2022-08-22T07:01:12.753Z,21.90
2022-08-22T07:06:20.481Z,22.10
2022-08-22T07:11:27.793Z,22.20
2022-08-22T07:16:36.851Z,22.40
2022-08-22T07:21:49.393Z,22.58
2022-08-22T07:27:08.895Z,22.80
2022-08-22T07:32:18.032Z,22.96
2022-08-22T07:37:31.426Z,23.10
2022-08-22T07:42:43.638Z,23.20
2022-08-22T07:48:25.084Z,23.30
2022-08-22T07:53:37.751Z,23.40
2022-08-22T07:58:42.092Z,23.60
2022-08-22T08:03:41.622Z,23.80
2022-08-22T08:08:46.697Z,24.10
2022-08-22T08:13:52.890Z,24.42
2022-08-22T08:18:57.286Z,24.70
2022-08-22T08:23:57.681Z,24.82
2022-08-22T08:29:00.038Z,25.00
2022-08-22T08:34:09.383Z,25.10
2022-08-22T08:39:20.770Z,25.30
2022-08-22T08:44:43.937Z,25.40
2022-08-22T08:50:02.501Z,25.50
2022-08-22T09:01:04.490Z,25.80
2022-08-22T09:06:44.827Z,26.12
2022-08-22T09:12:27.462Z,26.42
2022-08-22T09:17:59.036Z,26.80
2022-08-22T09:23:44.318Z,27.10
2022-08-22T09:28:54.010Z,27.50
2022-08-22T09:34:05.201Z,27.96
2022-08-22T09:39:20.162Z,28.40
2022-08-22T09:44:32.284Z,28.70
2022-08-22T09:49:49.807Z,29.08
2022-08-22T09:54:56.542Z,29.32
2022-08-22T10:00:17.412Z,29.50
2022-08-22T10:05:35.237Z,29.76
2022-08-22T10:11:03.116Z,30.02
2022-08-22T10:16:27.100Z,30.30
2022-08-22T10:21:41.061Z,30.30
2022-08-22T10:26:55.465Z,30.30
2022-08-22T10:32:10.687Z,30.20
2022-08-22T10:37:25.567Z,30.00
2022-08-22T10:42:35.790Z,29.94
2022-08-22T10:47:43.215Z,29.80
2022-08-22T10:53:12.868Z,29.60
2022-08-22T10:58:17.464Z,29.30
2022-08-22T11:03:30.815Z,29.00
2022-08-22T11:08:56.377Z,28.70
2022-08-22T11:14:26.009Z,28.40
2022-08-22T11:19:48.408Z,28.10
2022-08-22T11:25:38.807Z,27.90
2022-08-22T11:30:52.036Z,27.70
2022-08-22T11:36:04.769Z,27.60
2022-08-22T11:41:17.226Z,27.50
2022-08-22T11:46:32.694Z,27.50
2022-08-22T11:52:01.981Z,27.60
2022-08-22T11:57:12.853Z,27.70
2022-08-22T12:02:28.046Z,27.70
2022-08-22T12:07:39.059Z,27.80
2022-08-22T12:12:55.572Z,27.90
2022-08-22T12:18:32.108Z,28.02
2022-08-22T12:24:19.294Z,28.24
2022-08-22T12:29:44.703Z,28.50
2022-08-22T12:35:00.949Z,28.60
2022-08-22T12:40:45.498Z,28.70
2022-08-22T12:46:06.862Z,28.80
2022-08-22T12:51:45.100Z,28.80
2022-08-22T12:56:56.315Z,28.90
2022-08-22T13:02:01.042Z,29.00
2022-08-22T13:07:11.279Z,29.18
2022-08-22T13:12:26.225Z,29.40
2022-08-22T13:17:29.258Z,29.60
2022-08-22T13:22:35.330Z,29.80
2022-08-22T13:27:50.818Z,30.10
2022-08-22T13:33:13.032Z,30.60
2022-08-22T13:38:25.686Z,31.00
2022-08-22T13:43:30.940Z,31.10
2022-08-22T13:48:46.988Z,30.90
2022-08-22T13:54:01.005Z,30.90
2022-08-22T13:59:08.135Z,30.90
2022-08-22T14:04:35.608Z,30.80
2022-08-22T14:09:56.060Z,30.80
2022-08-22T14:15:01.949Z,30.76
2022-08-22T14:20:11.140Z,30.50
2022-08-22T14:25:24.017Z,30.20
2022-08-22T14:30:28.619Z,29.78
2022-08-22T14:35:37.964Z,29.60
2022-08-22T14:40:40.229Z,29.60
2022-08-22T14:45:45.670Z,29.50
2022-08-22T14:50:53.437Z,29.30
2022-08-22T14:56:04.569Z,29.18
2022-08-22T15:01:15.305Z,29.00
2022-08-22T15:06:31.744Z,28.68
2022-08-22T15:11:33.430Z,28.40
2022-08-22T15:16:43.813Z,28.30
2022-08-22T15:21:42.729Z,28.20
2022-08-22T15:26:55.293Z,28.10
2022-08-22T15:32:01.787Z,28.00
2022-08-22T15:37:27.631Z,28.00
2022-08-22T15:42:33.480Z,27.84
2022-08-22T15:47:41.718Z,27.80
2022-08-22T15:53:15.755Z,27.70
2022-08-22T15:58:25.450Z,27.50
2022-08-22T16:03:33.614Z,27.40
2022-08-22T16:08:52.156Z,27.20
2022-08-22T16:14:22.792Z,27.10
2022-08-22T16:19:26.446Z,26.94
2022-08-22T16:24:50.666Z,26.90
2022-08-22T16:30:01.063Z,26.70
2022-08-22T16:35:00.811Z,26.60
2022-08-22T16:40:16.794Z,26.50
2022-08-22T16:45:33.947Z,26.40
2022-08-22T16:50:41.010Z,26.30
2022-08-22T16:56:11.250Z,26.20
2022-08-22T17:01:20.842Z,26.16
2022-08-22T17:06:45.434Z,26.02
2022-08-22T17:11:59.404Z,25.98
2022-08-22T17:17:23.623Z,25.80
2022-08-22T17:22:33.178Z,25.70
2022-08-22T17:27:41.972Z,25.52
2022-08-22T17:33:10.030Z,25.40
2022-08-22T17:38:21.242Z,25.20
2022-08-22T17:43:49.228Z,25.00
2022-08-22T17:48:55.572Z,24.88
2022-08-22T17:54:02.101Z,24.70
2022-08-22T17:59:14.672Z,24.46
2022-08-22T18:04:30.506Z,24.30
2022-08-22T18:09:42.223Z,24.10
2022-08-22T18:14:55.144Z,24.00
2022-08-22T18:20:11.660Z,23.80
2022-08-22T18:25:35.873Z,23.70
2022-08-22T18:30:50.436Z,23.60
2022-08-22T18:35:56.743Z,23.50
2022-08-22T18:41:10.581Z,23.40
2022-08-22T18:46:40.933Z,23.30
2022-08-22T18:51:40.271Z,23.20
2022-08-22T18:56:54.844Z,23.10
2022-08-22T19:02:11.469Z,23.00
2022-08-22T19:07:35.743Z,22.88
2022-08-22T19:12:59.100Z,22.70
2022-08-22T19:18:27.925Z,22.60
2022-08-22T19:23:53.345Z,22.50
2022-08-22T19:28:53.154Z,22.40
2022-08-22T19:34:16.685Z,22.30
2022-08-22T19:39:54.628Z,22.12
2022-08-22T19:45:07.212Z,22.00
2022-08-22T19:50:14.614Z,21.90
2022-08-22T19:55:26.881Z,21.80
2022-08-22T20:00:50.298Z,21.70
2022-08-22T20:06:05.247Z,21.60
2022-08-22T20:11:38.264Z,21.48
2022-08-22T20:17:09.648Z,21.40
2022-08-22T20:22:12.017Z,21.20
2022-08-22T20:27:22.272Z,21.10
2022-08-22T20:32:26.231Z,21.02
2022-08-22T20:37:50.692Z,21.00
2022-08-22T20:42:54.932Z,20.96
2022-08-22T20:47:54.401Z,20.90
2022-08-22T20:53:13.641Z,20.88
2022-08-22T20:58:37.749Z,20.80
2022-08-22T21:03:45.171Z,20.70
2022-08-22T21:08:46.936Z,20.70
2022-08-22T21:13:46.147Z,20.60
2022-08-22T21:18:49.788Z,20.50
2022-08-22T21:23:51.951Z,20.50
2022-08-22T21:29:03.016Z,20.50
2022-08-22T21:34:03.762Z,20.48
2022-08-22T21:39:07.271Z,20.40
2022-08-22T21:44:29.660Z,20.40
2022-08-22T21:49:32.481Z,20.40
2022-08-22T21:54:43.456Z,20.40
2022-08-22T21:59:52.034Z,20.40
2022-08-22T22:04:58.900Z,20.38
2022-08-22T22:09:58.827Z,20.30
2022-08-22T22:14:58.258Z,20.30
2022-08-22T22:19:56.960Z,20.20
2022-08-22T22:24:56.300Z,20.16
2022-08-22T22:29:55.721Z,20.10
2022-08-22T22:34:55.507Z,20.00
2022-08-22T22:39:55.157Z,20.00
2022-08-22T22:44:54.335Z,20.00
2022-08-22T22:49:54.792Z,20.00
2022-08-22T22:54:54.154Z,19.92
2022-08-22T22:59:54.025Z,19.90
2022-08-22T23:04:57.876Z,19.80
2022-08-22T23:09:58.680Z,19.70
2022-08-22T23:15:01.389Z,19.70
2022-08-22T23:20:00.418Z,19.62
2022-08-22T23:25:00.580Z,19.60
2022-08-22T23:30:00.396Z,19.50
2022-08-22T23:34:59.770Z,19.40
2022-08-22T23:39:59.832Z,19.30
2022-08-22T23:44:59.021Z,19.30
2022-08-22T23:49:58.064Z,19.22
2022-08-22T23:54:57.853Z,19.20
2022-08-22T23:59:58.472Z,19.20
